Aérodrome :
LOGIN :

S'inscrire | Disclaimer

   EN    FR    IT 

 










Légende :    VFR   VFR Marginal   IFR   IFR Intensif   IFR Très Intensif
Visi : 
Plafond : 
>= 8 km
>= 3000ft
5 à 8 km
1000 à 3000 ft
1500m à 5 km
500 à 1000 ft
800 à 1500m
200 à 500 ft
< 800m
< 200 ft
Symboles :   Orages  Brouillard  Fortes neiges  Fortes précipitations  Vent > 20 kt
SIGMETs :   Divers  Orages  Givrage  Turbulence  Onde Orograph.  Cendres Volcan.







- Altitude de l'aérodrome : 236 ft
- Code IATA : MMX


ESMS - Malmö Sturup

DERNIER METAR :
  • 260320Z 26014KT 9999 FEW024 BKN042 10/06 Q1008

METARs EXPIRÉS :
  • 260250Z 26014KT 9999 BKN039 10/06 Q1009
  • 260220Z 26014KT 9999 BKN040 10/06 Q1009
  • 260150Z 27013KT 9999 FEW024 BKN036 10/05 Q1009
  • 260120Z 27015KT 9999 BKN032 10/05 Q1009
  • 260050Z 28014KT 9999 BKN038 11/04 Q1009

TAF TAF ESMS
Valide du 26 à 00h jusqu'au 27 à 00h UTC


252310Z 2600/2624 26015KT 9999 BKN025
TEMPO 2606/2609 BKN012
BECMG 2609/2611 4000 -RA BKN007
TEMPO 2611/2613 9000 BKN012
BECMG 2613/2616 25005KT 9999 NSW BKN020
BECMG 2621/2623 4000 RADZ BR BKN006
BECMG 2623/2624 2000 BKN002
Pas de NOTAMs connus pour ce terrain.



MET'MAP, la Météo Aéronautique d'un coup d'oeil ! - Copyright ORBIFLY Décembre 2007 - Disclaimer

ORBIFLY MET'MAP TEAM :

Programmation & Développement : Alexandra Zaïnal
Conception & Développement : Baudouin d'Aumeries
Co-Programmation & Développement : Marc-Olivier Méhu
Soutien technique & logistique : Manuel Goepfert

Contact : metmap@orbifly.com




SOURCES & CREDITS :

   NOAA